Terminal Aerodrome Forecast
Issued by NWS Charleston, WV

Current Version | Previous Version | Text Only | Print | Product List | Glossary Off
Versions: 1 2 3 4 5 6 7 8 9 10 11 12 13 14 15 16 17 18 19 20 21

000
FTUS41 KRLX 211744
TAFCRW
TAF
KCRW 211744Z 2118/2218 24005KT P6SM SCT100
      TEMPO 2118/2120 BKN100
     FM220100 21002KT P6SM SCT250
     FM220700 00000KT 5SM HZ SCT100
     FM221300 21003KT P6SM SCT100 BKN250
     FM221600 22005KT P6SM BKN100=

USA.gov is the U.S. government's official web portal to all federal, state and local government web resources and services.